createdAt,value
2019-03-28T00:02:43.300Z,98397.87
2019-03-28T00:07:48.086Z,98407.39
2019-03-28T00:12:52.798Z,98408.19
2019-03-28T00:17:57.568Z,98405.38
2019-03-28T00:23:09.778Z,98410.07
2019-03-28T00:28:15.546Z,98415.92
2019-03-28T00:33:20.295Z,98423.53
2019-03-28T00:38:25.192Z,98414.27
2019-03-28T00:43:29.979Z,98418.44
2019-03-28T00:48:34.830Z,98417.89
2019-03-28T00:53:39.570Z,98421.76
2019-03-28T00:58:44.326Z,98422.98
2019-03-28T01:03:49.260Z,98421.56
2019-03-28T01:08:54.206Z,98424.05
2019-03-28T01:13:59.067Z,98432.16
2019-03-28T01:19:03.907Z,98437.59
2019-03-28T01:24:08.631Z,98433.42
2019-03-28T01:29:13.341Z,98441.68
2019-03-28T01:34:18.233Z,98435.44
2019-03-28T01:39:22.869Z,98436.84
2019-03-28T01:44:27.507Z,98431.48
2019-03-28T01:49:33.224Z,98429.13
2019-03-28T01:54:37.853Z,98435.09
2019-03-28T01:59:42.759Z,98431.45
2019-03-28T02:04:47.522Z,98428.56
2019-03-28T02:09:52.345Z,98426.11
2019-03-28T02:14:57.426Z,98425.98
2019-03-28T02:20:02.244Z,98429.23
2019-03-28T02:25:08.213Z,98429.26
2019-03-28T02:30:12.974Z,98431.91
2019-03-28T02:35:17.902Z,98429.23
2019-03-28T02:40:22.881Z,98422.86
2019-03-28T02:45:27.694Z,98426.59
2019-03-28T02:51:00.088Z,98433.38
2019-03-28T02:56:05.136Z,98438.83
2019-03-28T03:01:09.946Z,98443.03
2019-03-28T03:06:14.611Z,98452.02
2019-03-28T03:11:19.365Z,98460.94
2019-03-28T03:16:24.105Z,98463.99
2019-03-28T03:21:28.849Z,98473.53
2019-03-28T03:26:33.595Z,98475.79
2019-03-28T03:31:38.336Z,98478.66
2019-03-28T03:36:42.968Z,98483.17
2019-03-28T03:41:47.607Z,98489.33
2019-03-28T03:46:52.156Z,98487.19
2019-03-28T03:51:56.989Z,98492.84
2019-03-28T03:57:01.738Z,98486.27
2019-03-28T04:02:06.290Z,98490.13
2019-03-28T04:07:10.906Z,98481.45
2019-03-28T04:12:15.866Z,98494.98
2019-03-28T04:17:21.660Z,98501.19
2019-03-28T04:22:27.420Z,98512.73
2019-03-28T04:27:32.241Z,98511.79
2019-03-28T04:32:37.094Z,98519.53
2019-03-28T04:37:41.718Z,98534.92
2019-03-28T04:42:46.440Z,98531.03
2019-03-28T04:47:51.203Z,98539.85
2019-03-28T04:52:55.863Z,98537.57
2019-03-28T04:58:00.703Z,98543.42
2019-03-28T05:03:05.441Z,98549.12
2019-03-28T05:08:10.082Z,98543.78
2019-03-28T05:13:14.825Z,98550.62
2019-03-28T05:18:19.572Z,98541.17
2019-03-28T05:23:24.215Z,98544.59
2019-03-28T05:28:28.950Z,98544.67
2019-03-28T05:33:33.692Z,98550.66
2019-03-28T05:38:39.868Z,98554.46
2019-03-28T05:43:45.587Z,98547.47
2019-03-28T05:48:50.485Z,98553.19
2019-03-28T05:53:55.229Z,98548.67
2019-03-28T05:59:10.107Z,98543.24
2019-03-28T06:04:06.250Z,98541.97
2019-03-28T06:09:10.991Z,98551.17
2019-03-28T06:14:15.736Z,98553.28
2019-03-28T06:19:20.581Z,98560.17
2019-03-28T06:24:25.333Z,98569.04
2019-03-28T06:29:30.070Z,98568.17
2019-03-28T06:34:34.807Z,98570.50
2019-03-28T06:39:39.764Z,98571.11
2019-03-28T06:44:44.497Z,98573.84
2019-03-28T06:49:49.135Z,98567.24
2019-03-28T06:54:53.776Z,98571.56
2019-03-28T06:59:58.337Z,98568.17
2019-03-28T07:05:03.955Z,98573.80
2019-03-28T07:10:08.624Z,98572.30
2019-03-28T07:15:13.383Z,98570.71
2019-03-28T07:20:18.515Z,98572.89
2019-03-28T07:25:25.432Z,98569.61
2019-03-28T07:30:30.356Z,98575.30
2019-03-28T07:35:35.206Z,98569.43
2019-03-28T07:40:39.785Z,98566.84
2019-03-28T07:45:44.585Z,98567.23
2019-03-28T07:50:49.174Z,98571.09
2019-03-28T07:55:55.599Z,98558.71
2019-03-28T08:01:00.246Z,98561.66
2019-03-28T08:06:04.887Z,98555.38
2019-03-28T08:11:09.635Z,98550.83
2019-03-28T08:16:15.913Z,98557.23
2019-03-28T08:21:20.652Z,98551.39
2019-03-28T08:26:25.401Z,98547.52
2019-03-28T08:31:30.041Z,98540.30
2019-03-28T08:36:35.711Z,98544.16
2019-03-28T08:41:40.438Z,98541.16
2019-03-28T08:46:45.188Z,98533.52
2019-03-28T08:51:50.091Z,98536.42
2019-03-28T08:56:54.777Z,98538.23
2019-03-28T09:01:59.522Z,98537.88
2019-03-28T09:07:04.272Z,98539.33
2019-03-28T09:12:09.003Z,98538.78
2019-03-28T09:17:13.754Z,98538.35
2019-03-28T09:22:18.496Z,98529.48
2019-03-28T09:27:23.139Z,98523.48
2019-03-28T09:32:27.981Z,98517.73
2019-03-28T09:37:32.725Z,98518.61
2019-03-28T09:42:37.479Z,98517.95
2019-03-28T09:47:42.231Z,98516.30
2019-03-28T09:52:46.955Z,98513.80
2019-03-28T09:57:51.700Z,98509.24
2019-03-28T10:02:56.466Z,98503.03
2019-03-28T10:08:01.097Z,98500.45
2019-03-28T10:13:05.724Z,98501.63
2019-03-28T10:18:10.282Z,98496.20
2019-03-28T10:23:14.919Z,98495.23
2019-03-28T10:28:19.490Z,98484.48
2019-03-28T10:33:24.689Z,98476.15
2019-03-28T10:38:29.750Z,98473.27
2019-03-28T10:43:34.488Z,98467.72
2019-03-28T10:48:39.240Z,98465.36
2019-03-28T10:53:43.978Z,98454.69
2019-03-28T10:58:48.733Z,98454.21
2019-03-28T11:03:53.374Z,98453.12
2019-03-28T11:08:58.988Z,98444.91
2019-03-28T11:14:03.877Z,98445.19
2019-03-28T11:19:09.641Z,98438.39
2019-03-28T11:24:14.209Z,98427.35
2019-03-28T11:29:18.934Z,98426.16
2019-03-28T11:34:23.669Z,98419.20
2019-03-28T11:39:29.335Z,98417.41
2019-03-28T11:44:34.085Z,98416.34
2019-03-28T11:49:38.819Z,98399.19
2019-03-28T11:54:43.565Z,98389.03
2019-03-28T11:59:49.330Z,98385.09
2019-03-28T12:04:54.073Z,98381.78
2019-03-28T12:09:58.714Z,98372.56
2019-03-28T12:15:03.558Z,98367.92
2019-03-28T12:20:08.450Z,98361.23
2019-03-28T12:25:13.251Z,98356.77
2019-03-28T12:30:18.250Z,98355.90
2019-03-28T12:35:22.996Z,98349.88
2019-03-28T12:40:28.022Z,98353.23
2019-03-28T12:45:32.836Z,98349.81
2019-03-28T12:50:37.898Z,98343.06
2019-03-28T12:55:42.639Z,98341.88
2019-03-28T13:00:47.381Z,98345.38
2019-03-28T13:05:52.224Z,98332.82
2019-03-28T13:10:57.069Z,98323.80
2019-03-28T13:16:01.725Z,98327.41
2019-03-28T13:21:13.342Z,98329.62
2019-03-28T13:26:12.730Z,98327.13
2019-03-28T13:31:17.694Z,98328.60
2019-03-28T13:36:23.291Z,98324.98
2019-03-28T13:41:28.087Z,98327.12
2019-03-28T13:46:33.039Z,98326.25
2019-03-28T13:51:37.777Z,98319.48
2019-03-28T13:56:42.778Z,98326.70
2019-03-28T14:01:47.742Z,98319.55
2019-03-28T14:06:52.525Z,98315.69
2019-03-28T14:11:57.270Z,98319.06
2019-03-28T14:17:03.043Z,98310.30
2019-03-28T14:22:07.882Z,98311.63
2019-03-28T14:27:13.034Z,98310.80
2019-03-28T14:32:17.772Z,98308.31
2019-03-28T14:37:24.173Z,98302.88
2019-03-28T14:42:31.253Z,98295.81
2019-03-28T14:47:37.511Z,98293.07
2019-03-28T14:52:44.186Z,98293.13
2019-03-28T14:57:50.585Z,98295.94
2019-03-28T15:02:56.963Z,98305.49
2019-03-28T15:08:02.245Z,98306.75
2019-03-28T15:13:08.331Z,98315.63
2019-03-28T15:18:15.296Z,98316.44
2019-03-28T15:23:20.956Z,98320.81
2019-03-28T15:28:27.711Z,98313.38
2019-03-28T15:33:39.771Z,98317.89
2019-03-28T15:38:44.420Z,98318.48
2019-03-28T15:43:51.627Z,98322.33
2019-03-28T15:48:58.422Z,98321.75
2019-03-28T15:54:04.797Z,98329.53
2019-03-28T15:59:12.576Z,98330.79
2019-03-28T16:04:19.602Z,98335.55
2019-03-28T16:09:27.486Z,98327.03
2019-03-28T16:14:33.506Z,98329.48
2019-03-28T16:19:38.096Z,98335.92
2019-03-28T16:24:42.881Z,98341.99
2019-03-28T16:29:48.556Z,98338.13
2019-03-28T16:34:53.401Z,98336.30
2019-03-28T16:39:58.135Z,98341.73
2019-03-28T16:45:04.101Z,98342.85
2019-03-28T16:50:08.860Z,98346.76
2019-03-28T16:55:25.881Z,98344.86
2019-03-28T17:00:20.467Z,98356.09
2019-03-28T17:05:26.873Z,98354.73
2019-03-28T17:10:46.160Z,98356.20
2019-03-28T17:15:51.167Z,98360.09
2019-03-28T17:20:56.172Z,98354.71
2019-03-28T17:26:00.898Z,98368.16
2019-03-28T17:31:06.571Z,98367.73
2019-03-28T17:36:12.324Z,98368.28
2019-03-28T17:41:17.074Z,98381.16
2019-03-28T17:46:21.810Z,98384.13
2019-03-28T17:51:26.494Z,98384.67
2019-03-28T17:56:32.539Z,98395.48
2019-03-28T18:01:37.274Z,98405.94
2019-03-28T18:06:43.673Z,98406.52
2019-03-28T18:11:48.500Z,98408.48
2019-03-28T18:16:53.258Z,98419.66
2019-03-28T18:22:03.686Z,98415.30
2019-03-28T18:27:04.365Z,98421.69
2019-03-28T18:32:09.313Z,98425.35
2019-03-28T18:37:14.158Z,98430.16
2019-03-28T18:42:18.917Z,98432.94
2019-03-28T18:47:23.859Z,98429.47
2019-03-28T18:52:29.098Z,98435.01
2019-03-28T18:57:33.865Z,98439.09
2019-03-28T19:02:38.691Z,98436.94
2019-03-28T19:07:43.656Z,98441.97
2019-03-28T19:12:48.386Z,98446.56
2019-03-28T19:17:53.047Z,98450.69
2019-03-28T19:22:59.436Z,98450.11
2019-03-28T19:28:07.250Z,98443.77
2019-03-28T19:33:10.326Z,98453.06
2019-03-28T19:38:15.169Z,98452.48
2019-03-28T19:43:22.096Z,98449.33
2019-03-28T19:48:26.499Z,98464.84
2019-03-28T19:53:31.132Z,98466.81
2019-03-28T19:58:35.895Z,98470.30
2019-03-28T20:03:40.725Z,98481.83
2019-03-28T20:08:46.702Z,98476.52
2019-03-28T20:13:52.266Z,98483.11
2019-03-28T20:18:57.106Z,98484.39
2019-03-28T20:24:01.877Z,98486.00
2019-03-28T20:29:08.868Z,98486.69
2019-03-28T20:34:14.924Z,98488.55
2019-03-28T20:39:20.684Z,98490.58
2019-03-28T20:44:25.529Z,98496.92
2019-03-28T20:49:30.281Z,98497.75
2019-03-28T20:54:35.015Z,98505.78
2019-03-28T20:59:41.385Z,98511.76
2019-03-28T21:04:45.930Z,98509.20
2019-03-28T21:09:50.575Z,98523.27
2019-03-28T21:14:55.319Z,98522.37
2019-03-28T21:20:00.402Z,98522.16
2019-03-28T21:25:06.816Z,98525.09
2019-03-28T21:30:11.480Z,98530.10
2019-03-28T21:35:16.140Z,98528.78
2019-03-28T21:40:21.205Z,98534.28
2019-03-28T21:45:27.097Z,98538.03
2019-03-28T21:50:31.793Z,98542.60
2019-03-28T21:55:36.541Z,98555.86
2019-03-28T22:00:41.090Z,98554.63
2019-03-28T22:05:45.717Z,98558.81
2019-03-28T22:10:51.370Z,98553.94
2019-03-28T22:15:56.119Z,98551.70
2019-03-28T22:21:00.865Z,98556.75
2019-03-28T22:26:05.708Z,98555.18
2019-03-28T22:31:10.452Z,98556.08
2019-03-28T22:36:15.192Z,98554.70
2019-03-28T22:41:19.837Z,98554.41
2019-03-28T22:46:24.577Z,98557.62
2019-03-28T22:51:31.586Z,98558.23
2019-03-28T22:56:35.602Z,98567.52
2019-03-28T23:01:40.852Z,98565.64
2019-03-28T23:06:47.187Z,98570.72
2019-03-28T23:11:54.500Z,98572.84
2019-03-28T23:16:59.997Z,98571.41
2019-03-28T23:22:05.254Z,98577.09
2019-03-28T23:27:10.914Z,98573.92
2019-03-28T23:32:16.618Z,98574.98
2019-03-28T23:37:24.950Z,98581.59
2019-03-28T23:42:31.279Z,98584.08
2019-03-28T23:47:36.849Z,98582.38
2019-03-28T23:52:42.858Z,98581.99
2019-03-28T23:57:48.487Z,98575.42
